Terminal Aerodrome Forecast
Issued by NWS

Home | Current Version | Previous Version | Text Only | Print | Product List | Glossary On
Versions: 1 2 3 4 5 6 7 8 9 10 11 12 13
058
FTUS45 KVEF 021120
TAFEED
TAF
KEED 021120Z 0212/0312 VRB05KT P6SM SKC
     FM021500 03006KT P6SM FEW100
     FM030200 35006KT P6SM SKC=

USA.gov is the U.S. government's official web portal to all federal, state and local government web resources and services.